Barkley Regional Airport Paducah US
ICAO: KPAH
IATA: PAH
Category: Medium
Scheduled Services: Yes

Elevation: 410 ft
TransAlt. 18000 ft.

Airport Communications:
ASOS:118.375
MEMPHIS CNTR:133.65
CTAF:119.6
GND:121.7
LOUISVILLE RDO:122.2
PADUCAH TWR:119.6
UNICOM:123

KPAH Zoom In..

If you have problems with the map follow the link
https://www.worldairports.se/pages/airport.php?
ICAO=KPAH

Runways:

(A) RW 04 length 6500 ft width 150 ft
ILS 108.50 / hdg 45

(B) RW 14 length 5499 ft width 150 ft
---- / hdg 140

(C) RW 22 length 6500 ft width 150 ft
---- / hdg 225

(D) RW 32 length 5499 ft width 150 ft
---- / hdg 320

Location; KPAH
Day. 19 / Time. 02.53 Zulu
* Altimeter: 30.24
* Temperature: 03° c. 37.4°f.
* Wind from: 310° Speed 07 kn with Gusts up to 17 kn.
Dewpoint: -09° c.
Visibility: 10 Statute Miles.
Clouds: Clear (automated report).

KPAH 190253Z 31007G17KT 10SM CLR 03/M09 A3024 RMK AO2 PK WND 31026/0156 SLP240 T00281089 51027


Wind From 310°
Speed 07 kn.

 
 
jpsmedia worldairports.se 2020   terms of use